Time;durP1;ratioP1;P1;durP2;ratioP2;P2;SDS_P1;SDS_P2;PMS_P1;PMS_P2;Temp;Humidity;BMP_temperature;BMP_pressure;BME280_temperature;BME280_humidity;BME280_pressure;Samples;Min_cycle;Max_cycle;Signal;HPM_P1;HPM_P2
2022/02/25 00:01:01;;;;;;;;;;;;;;;;;;2186652;67;1597;-72
2022/02/25 00:03:34;;;;;;;;;;;;;;;;;;2184041;59;2089;-73
2022/02/25 00:06:08;;;;;;;;;;;;;;;;;;2183348;67;1594;-71
2022/02/25 00:08:41;;;;;;;;;;;;;;;;;;2186342;67;1464;-72
2022/02/25 00:11:17;;;;;;;;;;;;;;;;;;2185912;59;1661;-72
2022/02/25 00:13:50;;;;;;;;;;;;;;;;;;2186087;59;1941;-72
2022/02/25 00:16:23;;;;;;;;;;;;;;;;;;2184793;67;1877;-72
2022/02/25 00:18:57;;;;;;;;;;;;;;;;;;2187346;67;1324;-73
2022/02/25 00:21:30;;;;;;;;;;;;;;;;;;2186148;59;2492;-72
2022/02/25 00:24:03;;;;;;;;;;;;;;;;;;2183785;59;1589;-72
2022/02/25 00:26:39;;;;;;;;;;;;;;;;;;2184119;59;1524;-72
2022/02/25 00:29:12;;;;;;;;;;;;;;;;;;2183815;67;1851;-72
2022/02/25 00:31:45;;;;;;;;;;;;;;;;;;2185492;67;2077;-72
2022/02/25 00:34:18;;;;;;;;;;;;;;;;;;2185729;67;2013;-73
2022/02/25 00:36:51;;;;;;;;;;;;;;;;;;2186794;60;1678;-73
2022/02/25 00:39:24;;;;;;;;;;;;;;;;;;2183990;67;1515;-73
2022/02/25 00:42:00;;;;;;;;;;;;;;;;;;2184078;59;1861;-72
2022/02/25 00:44:33;;;;;;;;;;;;;;;;;;2183275;59;1617;-73
2022/02/25 00:47:07;;;;;;;;;;;;;;;;;;2185683;59;1788;-73
2022/02/25 00:49:40;;;;;;;;;;;;;;;;;;2185543;59;2480;-72
2022/02/25 00:52:13;;;;;;;;;;;;;;;;;;2186222;59;1936;-73
2022/02/25 00:54:46;;;;;;;;;;;;;;;;;;2184372;59;1695;-72
2022/02/25 00:57:23;;;;;;;;;;;;;;;;;;2186264;67;1614;-71
2022/02/25 00:59:56;;;;;;;;;;;;;;;;;;2185415;59;1469;-72
2022/02/25 01:02:29;;;;;;;;;;;;;;;;;;2184976;59;1849;-71
2022/02/25 01:05:02;;;;;;;;;;;;;;;;;;2188164;53;3558;-69
2022/02/25 01:07:36;;;;;;;;;;;;;;;;;;2187376;59;1604;-69
2022/02/25 01:10:10;;;;;;;;;;;;;;;;;;2190398;59;1665;-70
2022/02/25 01:12:48;;;;;;;;;;;;;;;;;;2189782;59;1983;-69
2022/02/25 01:15:21;;;;;;;;;;;;;;;;;;2191613;59;1642;-69
2022/02/25 01:17:54;;;;;;;;;;;;;;;;;;2193806;59;1721;-70
2022/02/25 01:20:27;;;;;;;;;;;;;;;;;;2194258;59;1591;-70
2022/02/25 01:23:00;;;;;;;;;;;;;;;;;;2193063;59;2117;-70
2022/02/25 01:25:35;;;;;;;;;;;;;;;;;;2191325;59;1901;-71
2022/02/25 01:28:11;;;;;;;;;;;;;;;;;;2191989;59;1687;-69
2022/02/25 01:30:44;;;;;;;;;;;;;;;;;;2191580;59;1687;-68
2022/02/25 01:33:18;;;;;;;;;;;;;;;;;;2191101;59;1941;-69
2022/02/25 01:35:51;;;;;;;;;;;;;;;;;;2193091;59;1803;-70
2022/02/25 01:38:24;;;;;;;;;;;;;;;;;;2191172;67;1679;-70
2022/02/25 01:40:58;;;;;;;;;;;;;;;;;;2193530;67;1929;-70
2022/02/25 01:43:34;;;;;;;;;;;;;;;;;;2192819;67;1547;-69
2022/02/25 01:46:07;;;;;;;;;;;;;;;;;;2193797;59;2418;-70
2022/02/25 01:48:40;;;;;;;;;;;;;;;;;;2191421;59;1556;-70
2022/02/25 01:51:14;;;;;;;;;;;;;;;;;;2193946;67;1647;-70
2022/02/25 01:53:47;;;;;;;;;;;;;;;;;;2192941;67;1940;-69
2022/02/25 01:56:20;;;;;;;;;;;;;;;;;;2192059;59;1541;-70
2022/02/25 01:58:56;;;;;;;;;;;;;;;;;;2193224;67;1603;-71
2022/02/25 02:01:30;;;;;;;;;;;;;;;;;;2193653;67;1550;-71
2022/02/25 02:04:03;;;;;;;;;;;;;;;;;;2193573;59;1800;-70
2022/02/25 02:06:39;;;;;;;;;;;;;;;;;;2191838;59;1708;-70
2022/02/25 02:09:12;;;;;;;;;;;;;;;;;;2192633;59;1547;-69
2022/02/25 02:11:47;;;;;;;;;;;;;;;;;;2193465;59;1612;-69
2022/02/25 02:14:24;;;;;;;;;;;;;;;;;;2193885;67;1931;-69
2022/02/25 02:16:58;;;;;;;;;;;;;;;;;;2192643;59;1645;-69
2022/02/25 02:19:31;;;;;;;;;;;;;;;;;;2193849;67;1625;-70
2022/02/25 02:22:05;;;;;;;;;;;;;;;;;;2193814;67;1541;-70
2022/02/25 02:24:41;;;;;;;;;;;;;;;;;;2193013;59;1754;-69
2022/02/25 02:27:14;;;;;;;;;;;;;;;;;;2192353;59;1460;-71
2022/02/25 02:29:47;;;;;;;;;;;;;;;;;;2192726;67;1621;-70
2022/02/25 02:32:20;;;;;;;;;;;;;;;;;;2193564;59;1521;-70
2022/02/25 02:34:53;;;;;;;;;;;;;;;;;;2192070;67;2022;-68
2022/02/25 02:37:27;;;;;;;;;;;;;;;;;;2194241;67;1588;-70
2022/02/25 02:40:03;;;;;;;;;;;;;;;;;;2193463;59;1522;-69
2022/02/25 02:42:36;;;;;;;;;;;;;;;;;;2193607;59;1666;-69
2022/02/25 02:45:11;;;;;;;;;;;;;;;;;;2192436;59;1802;-70
2022/02/25 02:47:44;;;;;;;;;;;;;;;;;;2191920;59;1669;-69
2022/02/25 02:50:17;;;;;;;;;;;;;;;;;;2193382;59;1772;-69
2022/02/25 02:52:50;;;;;;;;;;;;;;;;;;2192992;59;1520;-70
2022/02/25 02:55:26;;;;;;;;;;;;;;;;;;2193928;59;1941;-69
2022/02/25 02:57:59;;;;;;;;;;;;;;;;;;2193436;59;1489;-70
2022/02/25 03:00:32;;;;;;;;;;;;;;;;;;2193854;67;1919;-69
2022/02/25 03:03:06;;;;;;;;;;;;;;;;;;2193142;67;1930;-68
2022/02/25 03:05:40;;;;;;;;;;;;;;;;;;2193118;59;1898;-69
2022/02/25 03:08:13;;;;;;;;;;;;;;;;;;2191548;59;1709;-69
2022/02/25 03:10:49;;;;;;;;;;;;;;;;;;2192334;59;1577;-70
2022/02/25 03:13:22;;;;;;;;;;;;;;;;;;2193928;59;1988;-69
2022/02/25 03:15:55;;;;;;;;;;;;;;;;;;2191428;67;1683;-70
2022/02/25 03:18:28;;;;;;;;;;;;;;;;;;2192581;67;1719;-69
2022/02/25 03:21:02;;;;;;;;;;;;;;;;;;2193291;67;1514;-70
2022/02/25 03:23:35;;;;;;;;;;;;;;;;;;2191896;59;1762;-69
2022/02/25 03:26:11;;;;;;;;;;;;;;;;;;2191987;59;2535;-69
2022/02/25 03:28:44;;;;;;;;;;;;;;;;;;2191430;67;1574;-70
2022/02/25 03:31:18;;;;;;;;;;;;;;;;;;2191780;67;1892;-69
2022/02/25 03:33:51;;;;;;;;;;;;;;;;;;2190799;67;1937;-69
2022/02/25 03:36:24;;;;;;;;;;;;;;;;;;2192468;67;1542;-70
2022/02/25 03:38:57;;;;;;;;;;;;;;;;;;2193308;67;1725;-70
2022/02/25 03:41:33;;;;;;;;;;;;;;;;;;2193303;59;1569;-69
2022/02/25 03:44:07;;;;;;;;;;;;;;;;;;2192273;67;1820;-70
2022/02/25 03:46:40;;;;;;;;;;;;;;;;;;2192070;59;1959;-71
2022/02/25 03:49:13;;;;;;;;;;;;;;;;;;2192827;59;1899;-70
2022/02/25 03:51:46;;;;;;;;;;;;;;;;;;2193391;67;1539;-70
2022/02/25 03:54:19;;;;;;;;;;;;;;;;;;2191211;67;1990;-69
2022/02/25 03:56:55;;;;;;;;;;;;;;;;;;2191476;59;1779;-71
2022/02/25 03:59:28;;;;;;;;;;;;;;;;;;2193349;67;1751;-68
2022/02/25 04:02:01;;;;;;;;;;;;;;;;;;2193270;67;1513;-70
2022/02/25 04:04:35;;;;;;;;;;;;;;;;;;2192846;67;2107;-68
2022/02/25 04:07:08;;;;;;;;;;;;;;;;;;2192541;59;1804;-69
2022/02/25 04:09:41;;;;;;;;;;;;;;;;;;2192516;59;1616;-69
2022/02/25 04:12:17;;;;;;;;;;;;;;;;;;2192679;67;2482;-68
2022/02/25 04:14:50;;;;;;;;;;;;;;;;;;2192298;59;1933;-68
2022/02/25 04:17:24;;;;;;;;;;;;;;;;;;2193079;67;1733;-69
2022/02/25 04:19:57;;;;;;;;;;;;;;;;;;2192756;59;1684;-68
2022/02/25 04:22:30;;;;;;;;;;;;;;;;;;2192192;59;1650;-68
2022/02/25 04:25:03;;;;;;;;;;;;;;;;;;2190928;59;2605;-70
2022/02/25 04:27:39;;;;;;;;;;;;;;;;;;2191464;59;1486;-70
2022/02/25 04:30:13;;;;;;;;;;;;;;;;;;2191241;67;1530;-69
2022/02/25 04:32:47;;;;;;;;;;;;;;;;;;2190560;67;2442;-69
2022/02/25 04:35:20;;;;;;;;;;;;;;;;;;2191462;59;1941;-68
2022/02/25 04:37:53;;;;;;;;;;;;;;;;;;2193732;67;1727;-72
2022/02/25 04:40:26;;;;;;;;;;;;;;;;;;2192594;59;1739;-70
2022/02/25 04:43:02;;;;;;;;;;;;;;;;;;2193620;59;1853;-69
2022/02/25 04:45:35;;;;;;;;;;;;;;;;;;2192344;59;1768;-71
2022/02/25 04:48:10;;;;;;;;;;;;;;;;;;2192959;59;2668;-69
2022/02/25 04:50:43;;;;;;;;;;;;;;;;;;2194168;67;2035;-69
2022/02/25 04:53:16;;;;;;;;;;;;;;;;;;2194166;67;1741;-71
2022/02/25 04:55:49;;;;;;;;;;;;;;;;;;2194343;59;1924;-70
2022/02/25 04:58:25;;;;;;;;;;;;;;;;;;2193775;67;1693;-71
2022/02/25 05:00:58;;;;;;;;;;;;;;;;;;2191888;59;2140;-71
2022/02/25 05:03:32;;;;;;;;;;;;;;;;;;2194351;67;2867;-71
2022/02/25 05:06:05;;;;;;;;;;;;;;;;;;2189743;59;2241;-70
2022/02/25 05:08:38;;;;;;;;;;;;;;;;;;2193136;67;1559;-69
2022/02/25 05:11:12;;;;;;;;;;;;;;;;;;2193689;59;1618;-69
2022/02/25 05:13:48;;;;;;;;;;;;;;;;;;2193240;59;2912;-72
2022/02/25 05:21:59;;;;;;;;;;;;;;;;;;2193813;67;1500;-69
2022/02/25 05:24:32;;;;;;;;;;;;;;;;;;2192917;59;1562;-70
2022/02/25 05:27:05;;;;;;;;;;;;;;;;;;2192814;59;2356;-70
2022/02/25 05:29:41;;;;;;;;;;;;;;;;;;2192638;67;1520;-70
2022/02/25 05:32:14;;;;;;;;;;;;;;;;;;2192883;67;2168;-70
2022/02/25 05:34:47;;;;;;;;;;;;;;;;;;2192736;60;1932;-69
2022/02/25 05:37:21;;;;;;;;;;;;;;;;;;2193603;59;1498;-70
2022/02/25 05:39:54;;;;;;;;;;;;;;;;;;2194173;59;1615;-70
2022/02/25 05:42:28;;;;;;;;;;;;;;;;;;2190834;59;5679;-70
2022/02/25 05:45:04;;;;;;;;;;;;;;;;;;2192177;59;2836;-69
2022/02/25 05:47:37;;;;;;;;;;;;;;;;;;2188968;59;1774;-69
2022/02/25 05:50:12;;;;;;;;;;;;;;;;;;2192730;67;1999;-71
2022/02/25 05:52:46;;;;;;;;;;;;;;;;;;2193899;67;1678;-69
2022/02/25 05:55:20;;;;;;;;;;;;;;;;;;2193155;59;1933;-70
2022/02/25 05:57:54;;;;;;;;;;;;;;;;;;2192919;67;1585;-69
2022/02/25 06:00:30;;;;;;;;;;;;;;;;;;2193561;59;2686;-69
2022/02/25 06:03:03;;;;;;;;;;;;;;;;;;2192060;67;1696;-69
2022/02/25 06:05:37;;;;;;;;;;;;;;;;;;2193336;59;2122;-70
2022/02/25 06:08:10;;;;;;;;;;;;;;;;;;2192464;59;1577;-68
2022/02/25 06:10:43;;;;;;;;;;;;;;;;;;2193449;59;1772;-69
2022/02/25 06:13:16;;;;;;;;;;;;;;;;;;2193522;67;2260;-69
2022/02/25 06:15:52;;;;;;;;;;;;;;;;;;2192299;59;1917;-69
2022/02/25 06:18:25;;;;;;;;;;;;;;;;;;2192397;67;1755;-70
2022/02/25 06:20:58;;;;;;;;;;;;;;;;;;2193393;59;1453;-70
2022/02/25 06:23:32;;;;;;;;;;;;;;;;;;2192647;59;1742;-70
2022/02/25 06:26:05;;;;;;;;;;;;;;;;;;2191433;59;2180;-70
2022/02/25 06:28:38;;;;;;;;;;;;;;;;;;2191676;67;1899;-70
2022/02/25 06:31:14;;;;;;;;;;;;;;;;;;2191067;67;1674;-70
2022/02/25 06:33:48;;;;;;;;;;;;;;;;;;2191638;67;1530;-69
2022/02/25 06:36:21;;;;;;;;;;;;;;;;;;2192864;60;1944;-69
2022/02/25 06:38:54;;;;;;;;;;;;;;;;;;2193951;67;1652;-69
2022/02/25 06:41:27;;;;;;;;;;;;;;;;;;2193129;59;1995;-69
2022/02/25 06:44:19;;;;;;;;;;;;;;;;;;2193678;67;1979;-71
2022/02/25 06:46:55;;;;;;;;;;;;;;;;;;2192040;59;2971;-71
2022/02/25 06:49:28;;;;;;;;;;;;;;;;;;2192721;59;1934;-69
2022/02/25 06:52:01;;;;;;;;;;;;;;;;;;2192955;67;1702;-70
2022/02/25 06:54:34;;;;;;;;;;;;;;;;;;2193234;59;1977;-71
2022/02/25 06:57:07;;;;;;;;;;;;;;;;;;2193645;59;2057;-70
2022/02/25 06:59:41;;;;;;;;;;;;;;;;;;2193668;67;1867;-71
2022/02/25 07:02:16;;;;;;;;;;;;;;;;;;2193692;67;1523;-71
2022/02/25 07:07:22;;;;;;;;;;;;;;;;;;2187674;59;2093;-72
2022/02/25 07:09:56;;;;;;;;;;;;;;;;;;2190487;59;1652;-72
2022/02/25 07:12:29;;;;;;;;;;;;;;;;;;2192028;67;2388;-72
2022/02/25 07:15:04;;;;;;;;;;;;;;;;;;2192825;59;1939;-72
2022/02/25 07:17:40;;;;;;;;;;;;;;;;;;2193143;59;1673;-72
2022/02/25 07:20:13;;;;;;;;;;;;;;;;;;2191157;59;2099;-72
2022/02/25 07:22:47;;;;;;;;;;;;;;;;;;2191819;59;1863;-72
2022/02/25 07:25:20;;;;;;;;;;;;;;;;;;2190950;59;1715;-72
2022/02/25 07:27:53;;;;;;;;;;;;;;;;;;2191863;67;2113;-72
2022/02/25 07:30:28;;;;;;;;;;;;;;;;;;2190829;67;1621;-72
2022/02/25 07:33:04;;;;;;;;;;;;;;;;;;2190062;59;1737;-72
2022/02/25 07:35:37;;;;;;;;;;;;;;;;;;2192970;59;1937;-72
2022/02/25 07:38:10;;;;;;;;;;;;;;;;;;2193575;67;1587;-72
2022/02/25 07:40:44;;;;;;;;;;;;;;;;;;2193613;59;1889;-72
2022/02/25 07:43:18;;;;;;;;;;;;;;;;;;2192861;59;1534;-72
2022/02/25 07:45:52;;;;;;;;;;;;;;;;;;2190997;59;2744;-72
2022/02/25 07:48:29;;;;;;;;;;;;;;;;;;2190998;59;2165;-72
2022/02/25 07:51:02;;;;;;;;;;;;;;;;;;2191266;59;1955;-72
2022/02/25 07:53:35;;;;;;;;;;;;;;;;;;2190647;67;1581;-72
2022/02/25 07:56:08;;;;;;;;;;;;;;;;;;2191214;67;1978;-71
2022/02/25 07:58:41;;;;;;;;;;;;;;;;;;2192301;59;1591;-72
2022/02/25 08:01:15;;;;;;;;;;;;;;;;;;2192100;59;2103;-72
2022/02/25 08:03:51;;;;;;;;;;;;;;;;;;2192142;59;1708;-72
2022/02/25 08:06:24;;;;;;;;;;;;;;;;;;2190865;59;2080;-72
2022/02/25 08:08:57;;;;;;;;;;;;;;;;;;2191023;59;2032;-72
2022/02/25 08:11:30;;;;;;;;;;;;;;;;;;2190868;67;1742;-73
2022/02/25 08:14:03;;;;;;;;;;;;;;;;;;2191784;59;2030;-72
2022/02/25 08:16:36;;;;;;;;;;;;;;;;;;2191139;59;1937;-73
2022/02/25 08:19:12;;;;;;;;;;;;;;;;;;2192453;59;1612;-73
2022/02/25 08:21:45;;;;;;;;;;;;;;;;;;2192259;59;1498;-72
2022/02/25 08:24:18;;;;;;;;;;;;;;;;;;2192373;59;2234;-72
2022/02/25 08:26:52;;;;;;;;;;;;;;;;;;2189807;59;1883;-73
2022/02/25 08:29:25;;;;;;;;;;;;;;;;;;2190462;67;1622;-72
2022/02/25 08:31:58;;;;;;;;;;;;;;;;;;2192241;59;1654;-73
2022/02/25 08:34:34;;;;;;;;;;;;;;;;;;2190539;67;1781;-73
2022/02/25 08:37:07;;;;;;;;;;;;;;;;;;2191141;60;1923;-72
2022/02/25 08:39:40;;;;;;;;;;;;;;;;;;2192376;67;2205;-72
2022/02/25 08:42:13;;;;;;;;;;;;;;;;;;2192062;67;2259;-73
2022/02/25 08:44:46;;;;;;;;;;;;;;;;;;2191407;59;2317;-72
2022/02/25 08:47:19;;;;;;;;;;;;;;;;;;2190264;59;2168;-73
2022/02/25 08:49:55;;;;;;;;;;;;;;;;;;2188962;59;1632;-73
2022/02/25 08:52:28;;;;;;;;;;;;;;;;;;2186942;59;1811;-72
2022/02/25 08:55:02;;;;;;;;;;;;;;;;;;2189342;67;1877;-73
2022/02/25 08:57:37;;;;;;;;;;;;;;;;;;2190595;59;1943;-72
2022/02/25 09:00:11;;;;;;;;;;;;;;;;;;2189285;59;2644;-73
2022/02/25 09:02:44;;;;;;;;;;;;;;;;;;2190178;59;2625;-73
2022/02/25 09:05:46;;;;;;;;;;;;;;;;;;2199906;58;2393;-71
2022/02/25 09:08:19;;;;;;;;;;;;;;;;;;2201312;66;1766;-72
2022/02/25 09:15:26;;;;;;;;;;;;;;;;;;2198594;58;2576;-71
2022/02/25 09:18:00;;;;;;;;;;;;;;;;;;2197986;59;2184;-71
2022/02/25 09:20:34;;;;;;;;;;;;;;;;;;2197448;59;1757;-71
2022/02/25 09:23:07;;;;;;;;;;;;;;;;;;2196375;59;2649;-71
2022/02/25 09:25:41;;;;;;;;;;;;;;;;;;2197423;59;1960;-70
2022/02/25 09:28:14;;;;;;;;;;;;;;;;;;2198252;67;1923;-72
2022/02/25 09:30:50;;;;;;;;;;;;;;;;;;2196166;58;2570;-72
2022/02/25 09:33:23;;;;;;;;;;;;;;;;;;2197520;59;2177;-72
2022/02/25 09:35:56;;;;;;;;;;;;;;;;;;2197263;59;1802;-71
2022/02/25 09:38:30;;;;;;;;;;;;;;;;;;2196955;67;1804;-71
2022/02/25 09:41:03;;;;;;;;;;;;;;;;;;2196838;59;2136;-73
2022/02/25 09:43:36;;;;;;;;;;;;;;;;;;2196664;59;2149;-74
2022/02/25 09:46:12;;;;;;;;;;;;;;;;;;2196610;58;2015;-74
2022/02/25 09:48:45;;;;;;;;;;;;;;;;;;2196648;58;1507;-74
2022/02/25 09:51:18;;;;;;;;;;;;;;;;;;2196356;66;1665;-71
2022/02/25 09:53:51;;;;;;;;;;;;;;;;;;2195619;59;1946;-72
2022/02/25 09:56:25;;;;;;;;;;;;;;;;;;2198138;59;1844;-72
2022/02/25 12:24:38;;;;;;;;;;;;;;;;;;880171;56;2946;-75
2022/02/25 12:27:33;;;;;;;;;;;;;;;;;;2197648;58;1600;-75
2022/02/25 12:30:21;;;;;;;;;;;;;;;;;;2194672;58;1737;-75
2022/02/25 12:32:57;;;;;;;;;;;;;;;;;;2199736;58;2198;-75
2022/02/25 12:35:46;;;;;;;;;;;;;;;;;;2208742;58;1933;-75
2022/02/25 12:38:22;;;;;;;;;;;;;;;;;;2201204;59;1936;-75
2022/02/25 12:41:11;;;;;;;;;;;;;;;;;;2193132;59;2324;-75
2022/02/25 12:43:51;;;;;;;;;;;;;;;;;;2207017;58;1560;-74
2022/02/25 12:46:25;;;;;;;;;;;;;;;;;;2198176;58;1672;-75
2022/02/25 12:48:59;;;;;;;;;;;;;;;;;;2212022;58;2103;-74
2022/02/25 12:51:33;;;;;;;;;;;;;;;;;;2199443;59;1754;-74
2022/02/25 12:54:07;;;;;;;;;;;;;;;;;;2202388;67;1927;-75
2022/02/25 12:56:45;;;;;;;;;;;;;;;;;;2201788;59;2921;-75
2022/02/25 12:59:20;;;;;;;;;;;;;;;;;;2211804;58;2517;-75
2022/02/25 13:01:55;;;;;;;;;;;;;;;;;;2200100;59;1921;-75
2022/02/25 13:04:29;;;;;;;;;;;;;;;;;;2200272;59;1436;-75
2022/02/25 13:07:03;;;;;;;;;;;;;;;;;;2213513;66;1052;-75
2022/02/25 13:09:37;;;;;;;;;;;;;;;;;;2200692;58;1236;-75
2022/02/25 13:12:15;;;;;;;;;;;;;;;;;;2201448;59;1307;-74
2022/02/25 13:14:49;;;;;;;;;;;;;;;;;;2199855;59;2674;-74
2022/02/25 13:17:25;;;;;;;;;;;;;;;;;;2212063;58;2175;-74
2022/02/25 13:22:32;;;;;;;;;;;;;;;;;;2210897;58;1565;-77
2022/02/25 13:25:07;;;;;;;;;;;;;;;;;;2210036;66;1916;-77
2022/02/25 13:27:45;;;;;;;;;;;;;;;;;;2210584;58;1896;-77
2022/02/25 13:30:23;;;;;;;;;;;;;;;;;;2208275;58;1990;-76
2022/02/25 13:32:58;;;;;;;;;;;;;;;;;;2209695;58;1720;-76
2022/02/25 13:35:34;;;;;;;;;;;;;;;;;;2208850;58;2020;-76
2022/02/25 13:38:14;;;;;;;;;;;;;;;;;;2209246;58;1883;-76
2022/02/25 13:40:48;;;;;;;;;;;;;;;;;;2209818;58;1988;-76
2022/02/25 13:43:23;;;;;;;;;;;;;;;;;;2209885;58;1402;-76
2022/02/25 13:45:59;;;;;;;;;;;;;;;;;;2208530;53;2203;-71
2022/02/25 13:54:12;;;;;;;;;;;;;;;;;;2196410;59;1512;-71
2022/02/25 13:56:46;;;;;;;;;;;;;;;;;;2199431;60;1819;-71
2022/02/25 13:59:20;;;;;;;;;;;;;;;;;;2198409;66;1623;-70
2022/02/25 14:02:04;;;;;;;;;;;;;;;;;;2198857;59;2469;-71
2022/02/25 14:04:38;;;;;;;;;;;;;;;;;;2197238;59;2045;-70
2022/02/25 14:07:11;;;;;;;;;;;;;;;;;;2195080;59;1777;-72
2022/02/25 14:09:50;;;;;;;;;;;;;;;;;;2197533;58;2445;-71
2022/02/25 14:12:23;;;;;;;;;;;;;;;;;;2197214;59;1618;-70
2022/02/25 14:14:57;;;;;;;;;;;;;;;;;;2197489;59;2580;-71
2022/02/25 14:17:31;;;;;;;;;;;;;;;;;;2197278;59;2810;-71
2022/02/25 14:20:06;;;;;;;;;;;;;;;;;;2199761;66;2563;-70
2022/02/25 14:22:40;;;;;;;;;;;;;;;;;;2200280;58;2092;-70
2022/02/25 14:25:27;;;;;;;;;;;;;;;;;;2196701;59;2372;-70
2022/02/25 14:28:05;;;;;;;;;;;;;;;;;;2199632;59;1880;-70
2022/02/25 14:30:40;;;;;;;;;;;;;;;;;;2197606;59;1615;-72
2022/02/25 14:33:14;;;;;;;;;;;;;;;;;;2198461;66;1562;-70
2022/02/25 14:35:48;;;;;;;;;;;;;;;;;;2197450;59;2119;-71
2022/02/25 14:38:25;;;;;;;;;;;;;;;;;;2196886;59;2020;-71
2022/02/25 14:41:01;;;;;;;;;;;;;;;;;;2196560;59;2723;-72
2022/02/25 14:43:35;;;;;;;;;;;;;;;;;;2195734;59;1672;-71
2022/02/25 14:46:09;;;;;;;;;;;;;;;;;;2196262;59;2026;-71
2022/02/25 14:48:43;;;;;;;;;;;;;;;;;;2192896;59;2756;-71
2022/02/25 14:51:16;;;;;;;;;;;;;;;;;;2197659;59;2007;-71
2022/02/25 14:53:49;;;;;;;;;;;;;;;;;;2197192;66;1920;-72
2022/02/25 14:56:25;;;;;;;;;;;;;;;;;;2198433;59;1975;-71
2022/02/25 14:58:58;;;;;;;;;;;;;;;;;;2198087;59;2164;-70
2022/02/25 15:01:31;;;;;;;;;;;;;;;;;;2197596;59;2042;-71
2022/02/25 15:04:05;;;;;;;;;;;;;;;;;;2197387;59;2047;-72
2022/02/25 15:06:38;;;;;;;;;;;;;;;;;;2196574;59;2504;-71
2022/02/25 15:09:11;;;;;;;;;;;;;;;;;;2197959;59;1703;-70
2022/02/25 15:11:47;;;;;;;;;;;;;;;;;;2195373;58;1905;-71
2022/02/25 15:14:23;;;;;;;;;;;;;;;;;;2197300;66;1544;-71
2022/02/25 15:16:56;;;;;;;;;;;;;;;;;;2194923;59;2637;-70
2022/02/25 15:19:29;;;;;;;;;;;;;;;;;;2196391;59;1982;-71
2022/02/25 15:22:03;;;;;;;;;;;;;;;;;;2199368;66;2001;-71
2022/02/25 15:24:37;;;;;;;;;;;;;;;;;;2199542;59;1774;-71
2022/02/25 15:27:13;;;;;;;;;;;;;;;;;;2198832;59;1776;-71
2022/02/25 15:29:46;;;;;;;;;;;;;;;;;;2198453;59;1891;-70
2022/02/25 15:32:20;;;;;;;;;;;;;;;;;;2194752;66;1799;-72
2022/02/25 15:34:53;;;;;;;;;;;;;;;;;;2198435;59;1822;-72
2022/02/25 15:37:26;;;;;;;;;;;;;;;;;;2197357;59;1850;-71
2022/02/25 15:39:59;;;;;;;;;;;;;;;;;;2197541;59;1765;-71
2022/02/25 15:42:35;;;;;;;;;;;;;;;;;;2198176;66;3012;-70
2022/02/25 15:45:09;;;;;;;;;;;;;;;;;;2197958;59;1743;-71
2022/02/25 15:47:42;;;;;;;;;;;;;;;;;;2198729;59;1659;-72
2022/02/25 15:50:17;;;;;;;;;;;;;;;;;;2198543;66;1693;-70
2022/02/25 15:52:51;;;;;;;;;;;;;;;;;;2199259;66;1767;-71
2022/02/25 15:55:24;;;;;;;;;;;;;;;;;;2199143;66;1853;-70
2022/02/25 15:58:00;;;;;;;;;;;;;;;;;;2199177;66;1635;-70
2022/02/25 16:00:34;;;;;;;;;;;;;;;;;;2199366;66;1980;-70
2022/02/25 16:03:07;;;;;;;;;;;;;;;;;;2199846;66;3021;-70
2022/02/25 16:05:41;;;;;;;;;;;;;;;;;;2199072;59;2473;-71
2022/02/25 16:08:14;;;;;;;;;;;;;;;;;;2198855;66;1978;-72
2022/02/25 16:10:47;;;;;;;;;;;;;;;;;;2200098;59;2470;-72
2022/02/25 16:13:23;;;;;;;;;;;;;;;;;;2199400;66;2045;-71
2022/02/25 16:15:56;;;;;;;;;;;;;;;;;;2199977;59;2503;-71
2022/02/25 16:18:29;;;;;;;;;;;;;;;;;;2196852;59;2456;-71
2022/02/25 16:21:02;;;;;;;;;;;;;;;;;;2197764;59;1936;-73
2022/02/25 16:23:36;;;;;;;;;;;;;;;;;;2198088;59;2244;-71
2022/02/25 16:26:09;;;;;;;;;;;;;;;;;;2193340;59;2077;-71
2022/02/25 16:28:45;;;;;;;;;;;;;;;;;;2196979;59;1515;-71
2022/02/25 16:31:19;;;;;;;;;;;;;;;;;;2194548;59;1888;-71
2022/02/25 16:33:52;;;;;;;;;;;;;;;;;;2197197;59;1656;-70
2022/02/25 16:36:25;;;;;;;;;;;;;;;;;;2197024;59;1732;-71
2022/02/25 16:38:59;;;;;;;;;;;;;;;;;;2188829;59;1675;-70
2022/02/25 16:46:47;;;;;;;;;;;;;;;;;;2201268;58;2145;-72
2022/02/25 16:49:21;;;;;;;;;;;;;;;;;;2205259;58;2217;-72
2022/02/25 16:51:54;;;;;;;;;;;;;;;;;;2203738;58;1744;-71
2022/02/25 16:57:04;;;;;;;;;;;;;;;;;;2192105;59;2247;-71
2022/02/25 16:59:38;;;;;;;;;;;;;;;;;;2196504;59;1609;-72
2022/02/25 17:02:18;;;;;;;;;;;;;;;;;;2197313;67;1987;-71
2022/02/25 17:04:52;;;;;;;;;;;;;;;;;;2197608;59;1670;-71
2022/02/25 17:07:25;;;;;;;;;;;;;;;;;;2196380;59;1858;-71
2022/02/25 17:09:58;;;;;;;;;;;;;;;;;;2195680;59;1997;-71
2022/02/25 17:12:31;;;;;;;;;;;;;;;;;;2193958;59;1624;-71
2022/02/25 17:15:05;;;;;;;;;;;;;;;;;;2195586;59;1901;-70
2022/02/25 17:17:41;;;;;;;;;;;;;;;;;;2194641;59;2804;-72
2022/02/25 17:20:14;;;;;;;;;;;;;;;;;;2192391;59;3214;-71
2022/02/25 17:22:47;;;;;;;;;;;;;;;;;;2192031;59;2082;-71
2022/02/25 17:25:23;;;;;;;;;;;;;;;;;;2194493;67;1560;-71
2022/02/25 17:27:56;;;;;;;;;;;;;;;;;;2194808;67;1904;-71
2022/02/25 17:30:29;;;;;;;;;;;;;;;;;;2192573;59;2373;-71
2022/02/25 17:33:05;;;;;;;;;;;;;;;;;;2194140;59;2011;-71
2022/02/25 17:35:40;;;;;;;;;;;;;;;;;;2193136;59;2300;-72
2022/02/25 17:38:13;;;;;;;;;;;;;;;;;;2192034;59;1772;-71
2022/02/25 17:40:46;;;;;;;;;;;;;;;;;;2192231;59;1794;-72
2022/02/25 17:43:19;;;;;;;;;;;;;;;;;;2192232;59;2412;-71
2022/02/25 17:45:53;;;;;;;;;;;;;;;;;;2192228;59;2310;-72
2022/02/25 17:48:29;;;;;;;;;;;;;;;;;;2192177;59;2204;-71
2022/02/25 17:51:07;;;;;;;;;;;;;;;;;;2194750;59;1735;-72
2022/02/25 17:53:40;;;;;;;;;;;;;;;;;;2194499;67;1658;-71
2022/02/25 17:56:14;;;;;;;;;;;;;;;;;;2192377;59;2103;-72
2022/02/25 17:58:47;;;;;;;;;;;;;;;;;;2192337;59;1633;-74
2022/02/25 18:01:20;;;;;;;;;;;;;;;;;;2194372;59;2109;-72
2022/02/25 18:03:56;;;;;;;;;;;;;;;;;;2194240;59;1945;-71
2022/02/25 18:06:29;;;;;;;;;;;;;;;;;;2189472;59;2020;-72
2022/02/25 18:09:02;;;;;;;;;;;;;;;;;;2192455;59;2910;-71
2022/02/25 18:11:35;;;;;;;;;;;;;;;;;;2196591;59;1770;-73
2022/02/25 18:14:09;;;;;;;;;;;;;;;;;;2195182;59;1558;-71
2022/02/25 18:16:42;;;;;;;;;;;;;;;;;;2195518;59;2564;-71
2022/02/25 18:19:18;;;;;;;;;;;;;;;;;;2193617;59;2860;-71
2022/02/25 18:21:51;;;;;;;;;;;;;;;;;;2178285;59;85368;-71
2022/02/25 18:24:24;;;;;;;;;;;;;;;;;;2182299;59;15304;-71
2022/02/25 18:26:57;;;;;;;;;;;;;;;;;;2186091;59;2024;-71
2022/02/25 18:29:30;;;;;;;;;;;;;;;;;;2186586;59;2302;-71
2022/02/25 18:32:03;;;;;;;;;;;;;;;;;;2188798;59;1844;-70
2022/02/25 18:34:39;;;;;;;;;;;;;;;;;;2187597;59;115194;-70
2022/02/25 18:37:12;;;;;;;;;;;;;;;;;;2189413;59;1890;-71
2022/02/25 18:39:46;;;;;;;;;;;;;;;;;;2187328;59;1855;-70
2022/02/25 18:42:19;;;;;;;;;;;;;;;;;;2188533;59;1932;-70
2022/02/25 18:44:52;;;;;;;;;;;;;;;;;;2189624;67;2576;-70
2022/02/25 18:47:25;;;;;;;;;;;;;;;;;;2190024;59;1649;-70
2022/02/25 18:50:01;;;;;;;;;;;;;;;;;;2190822;59;2016;-70
2022/02/25 18:52:34;;;;;;;;;;;;;;;;;;2189858;67;1988;-70
2022/02/25 18:55:09;;;;;;;;;;;;;;;;;;2190193;59;1910;-70
2022/02/25 18:57:42;;;;;;;;;;;;;;;;;;2189701;59;1678;-70
2022/02/25 19:00:16;;;;;;;;;;;;;;;;;;2190240;67;1631;-70
2022/02/25 19:02:49;;;;;;;;;;;;;;;;;;2189895;59;1931;-72
2022/02/25 19:05:25;;;;;;;;;;;;;;;;;;2190294;67;1887;-71
2022/02/25 19:07:58;;;;;;;;;;;;;;;;;;2189800;59;1906;-71
2022/02/25 19:10:32;;;;;;;;;;;;;;;;;;2190140;59;1484;-72
2022/02/25 19:13:05;;;;;;;;;;;;;;;;;;2189708;59;1655;-70
2022/02/25 19:15:38;;;;;;;;;;;;;;;;;;2190290;59;3030;-70
2022/02/25 19:18:11;;;;;;;;;;;;;;;;;;2189578;59;2975;-70
2022/02/25 19:20:47;;;;;;;;;;;;;;;;;;2188516;67;2619;-70
2022/02/25 19:23:20;;;;;;;;;;;;;;;;;;2188648;67;2912;-71
2022/02/25 19:25:53;;;;;;;;;;;;;;;;;;2189835;59;1926;-71
2022/02/25 19:28:26;;;;;;;;;;;;;;;;;;2189173;59;2176;-71
2022/02/25 19:30:59;;;;;;;;;;;;;;;;;;2189435;59;2512;-71
2022/02/25 19:33:32;;;;;;;;;;;;;;;;;;2190106;59;1650;-71
2022/02/25 19:36:09;;;;;;;;;;;;;;;;;;2189934;59;1977;-71
2022/02/25 19:38:42;;;;;;;;;;;;;;;;;;2190321;59;2305;-71
2022/02/25 19:41:15;;;;;;;;;;;;;;;;;;2189277;59;2370;-71
2022/02/25 19:43:48;;;;;;;;;;;;;;;;;;2188805;59;2470;-71
2022/02/25 19:46:22;;;;;;;;;;;;;;;;;;2189377;59;1856;-70
2022/02/25 19:48:55;;;;;;;;;;;;;;;;;;2189899;59;1756;-70
2022/02/25 19:51:31;;;;;;;;;;;;;;;;;;2189673;59;2222;-73
2022/02/25 19:54:05;;;;;;;;;;;;;;;;;;2190035;59;1822;-72
2022/02/25 19:56:38;;;;;;;;;;;;;;;;;;2189443;59;2274;-73
2022/02/25 19:59:12;;;;;;;;;;;;;;;;;;2188647;59;1764;-73
2022/02/25 20:01:45;;;;;;;;;;;;;;;;;;2190603;59;1520;-74
2022/02/25 20:04:18;;;;;;;;;;;;;;;;;;2190587;67;1928;-72
2022/02/25 20:06:54;;;;;;;;;;;;;;;;;;2190931;59;2144;-73
2022/02/25 20:09:27;;;;;;;;;;;;;;;;;;2189965;59;1557;-73
2022/02/25 20:12:00;;;;;;;;;;;;;;;;;;2190320;59;1847;-73
2022/02/25 20:14:33;;;;;;;;;;;;;;;;;;2189113;59;2178;-74
2022/02/25 20:17:06;;;;;;;;;;;;;;;;;;2190326;59;1982;-74
2022/02/25 20:19:39;;;;;;;;;;;;;;;;;;2190267;59;2048;-74
2022/02/25 20:22:15;;;;;;;;;;;;;;;;;;2188026;59;3155;-73
2022/02/25 20:24:48;;;;;;;;;;;;;;;;;;2189145;59;1949;-73
2022/02/25 20:27:21;;;;;;;;;;;;;;;;;;2190720;67;1897;-74
2022/02/25 20:29:55;;;;;;;;;;;;;;;;;;2189379;59;1647;-72
2022/02/25 20:32:28;;;;;;;;;;;;;;;;;;2190494;67;1723;-73
2022/02/25 20:35:01;;;;;;;;;;;;;;;;;;2188900;59;1835;-73
2022/02/25 20:37:37;;;;;;;;;;;;;;;;;;2189866;59;1470;-73
2022/02/25 20:40:12;;;;;;;;;;;;;;;;;;2190464;59;1908;-73
2022/02/25 20:42:45;;;;;;;;;;;;;;;;;;2190007;67;2002;-73
2022/02/25 20:45:19;;;;;;;;;;;;;;;;;;2190179;67;1938;-73